Time;durP1;ratioP1;P1;durP2;ratioP2;P2;SDS_P1;SDS_P2;PMS_P1;PMS_P2;Temp;Humidity;BMP_temperature;BMP_pressure;BME280_temperature;BME280_humidity;BME280_pressure;Samples;Min_cycle;Max_cycle;Signal;HPM_P1;HPM_P2
2023/11/10 00:02:51;;;;;;;169.20;10.95;;;;;;;;;;6145491;23;20399;-54
2023/11/10 00:05:39;;;;;;;87.25;5.63;;;;;;;;;;6145544;23;20025;-55
2023/11/10 00:08:39;;;;;;;119.68;7.43;;;;;;;;;;6146595;23;20025;-52
2023/11/10 00:11:26;;;;;;;69.15;4.90;;;;;;;;;;6147074;23;20084;-54
2023/11/10 00:14:19;;;;;;;127.13;6.35;;;;;;;;;;6137857;23;20075;-61
2023/11/10 00:17:13;;;;;;;89.60;4.68;;;;;;;;;;6142643;23;20463;-55
2023/11/10 00:20:08;;;;;;;174.30;10.05;;;;;;;;;;6146003;23;20018;-53
2023/11/10 00:22:55;;;;;;;160.85;10.70;;;;;;;;;;6144831;23;20503;-54
2023/11/10 00:25:49;;;;;;;184.13;9.43;;;;;;;;;;6143665;23;20021;-54
2023/11/10 00:28:37;;;;;;;229.55;9.90;;;;;;;;;;6146085;23;20045;-55
2023/11/10 00:31:31;;;;;;;226.90;9.13;;;;;;;;;;6145682;23;20025;-55
2023/11/10 00:34:18;;;;;;;135.35;8.07;;;;;;;;;;6144073;23;20558;-53
2023/11/10 00:37:13;;;;;;;260.27;11.82;;;;;;;;;;6143985;23;20033;-64
2023/11/10 00:40:01;;;;;;;303.00;15.55;;;;;;;;;;6145675;23;20037;-64
2023/11/10 00:42:53;;;;;;;320.95;14.35;;;;;;;;;;6143170;23;20093;-65
2023/11/10 00:45:41;;;;;;;351.20;18.10;;;;;;;;;;6144617;23;20187;-64
2023/11/10 00:48:35;;;;;;;247.45;11.55;;;;;;;;;;6145474;23;20033;-65
2023/11/10 00:51:22;;;;;;;269.00;12.40;;;;;;;;;;6146251;23;20701;-63
2023/11/10 00:54:18;;;;;;;300.65;13.40;;;;;;;;;;6144698;23;20022;-51
2023/11/10 00:57:12;;;;;;;211.13;10.52;;;;;;;;;;6142380;23;20033;-51
2023/11/10 01:00:07;;;;;;;127.40;8.25;;;;;;;;;;6143510;23;20061;-46
2023/11/10 01:02:54;;;;;;;101.03;8.50;;;;;;;;;;6141848;23;20479;-54
2023/11/10 01:05:48;;;;;;;124.53;7.03;;;;;;;;;;6139373;23;20049;-53
2023/11/10 01:08:41;;;;;;;66.95;5.78;;;;;;;;;;6143926;23;20547;-53
2023/11/10 01:11:36;;;;;;;37.33;4.20;;;;;;;;;;6143387;23;20057;-61
2023/11/10 01:14:23;;;;;;;206.95;10.80;;;;;;;;;;6140135;23;20025;-64
2023/11/10 01:17:16;;;;;;;126.25;7.47;;;;;;;;;;6143125;23;20025;-63
2023/11/10 01:20:06;;;;;;;151.05;9.02;;;;;;;;;;6143780;23;20021;-63
2023/11/10 01:22:59;;;;;;;282.00;13.15;;;;;;;;;;6135714;23;20072;-63
2023/11/10 01:25:45;;;;;;;63.05;6.05;;;;;;;;;;6142978;23;20355;-63
2023/11/10 01:28:39;;;;;;;49.53;5.45;;;;;;;;;;6143182;23;20084;-54
2023/11/10 01:31:26;;;;;;;33.35;4.00;;;;;;;;;;6144507;23;20022;-60
2023/11/10 01:34:19;;;;;;;19.88;4.88;;;;;;;;;;6142760;23;20025;-60
2023/11/10 01:37:07;;;;;;;23.15;5.10;;;;;;;;;;6143980;23;20026;-60
2023/11/10 01:40:02;;;;;;;87.18;7.03;;;;;;;;;;6143541;23;20360;-60
2023/11/10 01:42:48;;;;;;;57.97;6.38;;;;;;;;;;6142276;23;20025;-60
2023/11/10 01:45:42;;;;;;;38.80;5.75;;;;;;;;;;6145155;23;20028;-59
2023/11/10 01:48:36;;;;;;;28.92;5.45;;;;;;;;;;6142855;23;20104;-64
2023/11/10 01:51:10;;;;;;;39.75;5.45;;;;;;;;;;6142152;23;20036;-59
2023/11/10 01:53:57;;;;;;;25.98;5.25;;;;;;;;;;6129608;23;20369;-59
2023/11/10 01:56:52;;;;;;;52.22;6.82;;;;;;;;;;6144703;23;20333;-59
2023/11/10 01:59:41;;;;;;;42.65;5.40;;;;;;;;;;6138737;23;20468;-60
2023/11/10 02:02:35;;;;;;;118.72;9.38;;;;;;;;;;6141259;23;20096;-59
2023/11/10 02:05:23;;;;;;;153.65;9.68;;;;;;;;;;6146037;23;20029;-62
2023/11/10 02:08:22;;;;;;;157.20;10.70;;;;;;;;;;6171371;23;20185;-59
2023/11/10 02:11:09;;;;;;;119.50;8.18;;;;;;;;;;6174379;23;20029;-59
2023/11/10 02:14:04;;;;;;;241.90;13.93;;;;;;;;;;6172249;23;20033;-59
2023/11/10 02:16:51;;;;;;;125.28;8.13;;;;;;;;;;6172058;23;20768;-59
2023/11/10 02:19:45;;;;;;;216.50;12.35;;;;;;;;;;6173571;23;20079;-59
2023/11/10 02:22:32;;;;;;;146.93;9.02;;;;;;;;;;6171711;23;20033;-55
2023/11/10 02:25:25;;;;;;;204.55;12.05;;;;;;;;;;6173637;23;20028;-64
2023/11/10 02:28:12;;;;;;;228.82;11.57;;;;;;;;;;6173357;23;20087;-52
2023/11/10 02:31:07;;;;;;;253.38;14.25;;;;;;;;;;6175664;23;20613;-50
2023/11/10 02:33:55;;;;;;;226.02;11.57;;;;;;;;;;6174148;23;20025;-53
2023/11/10 02:36:48;;;;;;;194.07;9.25;;;;;;;;;;6174426;23;20036;-55
2023/11/10 02:39:36;;;;;;;116.20;7.70;;;;;;;;;;6173695;23;20021;-52
2023/11/10 02:42:28;;;;;;;307.70;14.90;;;;;;;;;;6175936;23;20079;-53
2023/11/10 02:45:22;;;;;;;240.90;12.75;;;;;;;;;;6173412;23;20025;-59
2023/11/10 02:48:16;;;;;;;196.60;10.07;;;;;;;;;;6172377;23;20023;-59
2023/11/10 02:51:04;;;;;;;201.85;12.13;;;;;;;;;;6174535;23;20087;-59
2023/11/10 02:53:58;;;;;;;277.98;12.70;;;;;;;;;;6172424;23;20060;-59
2023/11/10 02:56:45;;;;;;;91.40;6.70;;;;;;;;;;6175310;23;20048;-59
2023/11/10 02:59:39;;;;;;;148.48;8.48;;;;;;;;;;6173914;23;20024;-58
2023/11/10 03:02:26;;;;;;;156.98;10.32;;;;;;;;;;6173926;23;20025;-54
2023/11/10 03:05:20;;;;;;;123.30;9.88;;;;;;;;;;6173220;23;20044;-52
2023/11/10 03:08:13;;;;;;;182.23;11.98;;;;;;;;;;6171418;23;20458;-49
2023/11/10 03:11:08;;;;;;;270.83;11.77;;;;;;;;;;6172126;23;20017;-52
2023/11/10 03:13:55;;;;;;;150.10;9.98;;;;;;;;;;6170392;23;20091;-53
2023/11/10 03:16:49;;;;;;;156.55;10.13;;;;;;;;;;6165206;23;20072;-51
2023/11/10 03:19:36;;;;;;;369.95;16.15;;;;;;;;;;6171335;23;20021;-60
2023/11/10 03:22:30;;;;;;;189.30;10.40;;;;;;;;;;6171446;23;20687;-60
2023/11/10 03:25:17;;;;;;;219.05;11.57;;;;;;;;;;6171060;23;20035;-59
2023/11/10 03:28:11;;;;;;;243.57;12.20;;;;;;;;;;6173019;23;20028;-60
2023/11/10 03:30:58;;;;;;;347.02;16.35;;;;;;;;;;6172060;23;20033;-63
2023/11/10 03:33:52;;;;;;;112.30;7.65;;;;;;;;;;6170864;23;20719;-60
2023/11/10 03:36:45;;;;;;;196.48;11.80;;;;;;;;;;6171872;23;20068;-53
2023/11/10 03:39:39;;;;;;;166.95;8.80;;;;;;;;;;6172296;23;20610;-61
2023/11/10 03:42:28;;;;;;;120.85;8.70;;;;;;;;;;6170813;23;20029;-61
2023/11/10 03:45:21;;;;;;;121.90;8.98;;;;;;;;;;6158376;23;20714;-61
2023/11/10 03:48:08;;;;;;;83.65;8.68;;;;;;;;;;6171593;23;20048;-61
2023/11/10 03:51:06;;;;;;;48.40;6.30;;;;;;;;;;6174101;23;20033;-61
2023/11/10 03:53:54;;;;;;;65.78;6.90;;;;;;;;;;6172365;23;20021;-61
2023/11/10 03:56:47;;;;;;;171.10;10.13;;;;;;;;;;6172057;23;20095;-53
2023/11/10 03:59:15;;;;;;;104.72;8.50;;;;;;;;;;6145988;23;20479;-61
2023/11/10 04:02:09;;;;;;;115.30;6.63;;;;;;;;;;6173066;23;20021;-61
2023/11/10 04:04:56;;;;;;;85.50;6.78;;;;;;;;;;6173929;23;20025;-61
2023/11/10 04:07:29;;;;;;;92.03;7.20;;;;;;;;;;6173907;23;20095;-61
2023/11/10 04:10:11;;;;;;;34.70;5.15;;;;;;;;;;6174307;23;20029;-61
2023/11/10 04:12:58;;;;;;;76.82;6.18;;;;;;;;;;6175685;23;20076;-60
2023/11/10 04:15:51;;;;;;;123.00;8.18;;;;;;;;;;6173426;23;20079;-61
2023/11/10 04:18:39;;;;;;;79.45;6.25;;;;;;;;;;6173036;23;20075;-61
2023/11/10 04:21:32;;;;;;;98.85;7.13;;;;;;;;;;6175727;23;20032;-61
2023/11/10 04:24:21;;;;;;;57.38;6.40;;;;;;;;;;6174174;23;20363;-61
2023/11/10 04:27:14;;;;;;;107.82;8.02;;;;;;;;;;6174940;23;20071;-61
2023/11/10 04:30:15;;;;;;;116.75;9.25;;;;;;;;;;6172745;23;20541;-61
2023/11/10 04:33:16;;;;;;;122.75;8.00;;;;;;;;;;6175516;23;20090;-54
2023/11/10 04:36:13;;;;;;;90.22;7.85;;;;;;;;;;6175351;23;20043;-62
2023/11/10 04:39:07;;;;;;;123.20;8.85;;;;;;;;;;6174078;23;20025;-62
2023/11/10 04:41:54;;;;;;;148.40;9.05;;;;;;;;;;6175957;23;20441;-62
2023/11/10 04:44:48;;;;;;;190.80;12.65;;;;;;;;;;6173484;23;20469;-62
2023/11/10 04:47:42;;;;;;;233.93;11.93;;;;;;;;;;6174430;23;20099;-62
2023/11/10 04:50:29;;;;;;;119.43;9.18;;;;;;;;;;6175733;23;20474;-60
2023/11/10 04:53:22;;;;;;;114.22;8.10;;;;;;;;;;6175170;23;20095;-65
2023/11/10 04:56:10;;;;;;;121.68;7.78;;;;;;;;;;6174178;23;20083;-65
2023/11/10 04:58:44;;;;;;;246.60;14.98;;;;;;;;;;6172480;23;20036;-65
2023/11/10 05:01:39;;;;;;;221.63;11.70;;;;;;;;;;6170513;23;20025;-65
2023/11/10 05:04:30;;;;;;;62.72;7.07;;;;;;;;;;6174316;23;20483;-65
2023/11/10 05:07:22;;;;;;;173.52;10.15;;;;;;;;;;6172988;23;20780;-65
2023/11/10 05:10:17;;;;;;;127.20;8.35;;;;;;;;;;6172567;23;20091;-65
2023/11/10 05:13:04;;;;;;;273.48;14.30;;;;;;;;;;6176805;23;20084;-63
2023/11/10 05:15:58;;;;;;;223.65;12.95;;;;;;;;;;6173206;23;20021;-63
2023/11/10 05:18:45;;;;;;;144.77;9.73;;;;;;;;;;6172506;23;20538;-63
2023/11/10 05:21:39;;;;;;;143.70;9.00;;;;;;;;;;6174054;23;20025;-63
2023/11/10 05:24:26;;;;;;;150.02;10.48;;;;;;;;;;6170911;23;20025;-63
2023/11/10 05:27:20;;;;;;;166.07;9.98;;;;;;;;;;6174725;23;20028;-55
2023/11/10 05:30:13;;;;;;;56.47;6.88;;;;;;;;;;6173507;23;20080;-62
2023/11/10 05:33:08;;;;;;;82.07;9.00;;;;;;;;;;6172329;23;20028;-62
2023/11/10 05:36:02;;;;;;;65.95;8.23;;;;;;;;;;6173517;23;20467;-63
2023/11/10 05:38:49;;;;;;;20.67;5.65;;;;;;;;;;6171335;23;20021;-62
2023/11/10 05:41:23;;;;;;;15.50;5.78;;;;;;;;;;6171736;23;20040;-62
2023/11/10 05:43:50;;;;;;;;;;;;;;;;;;6163139;23;20025;-62
2023/11/10 05:46:43;;;;;;;62.75;8.27;;;;;;;;;;6171248;23;19974;-61
2023/11/10 05:49:39;;;;;;;41.15;7.40;;;;;;;;;;6171002;23;20067;-60
2023/11/10 05:52:32;;;;;;;27.63;6.10;;;;;;;;;;6172606;23;20528;-60
2023/11/10 05:55:26;;;;;;;36.33;7.18;;;;;;;;;;6137530;23;20463;-60
2023/11/10 05:58:13;;;;;;;41.25;7.43;;;;;;;;;;6147988;23;20029;-60
2023/11/10 06:01:07;;;;;;;45.92;7.35;;;;;;;;;;6173788;23;20021;-60
2023/11/10 06:03:56;;;;;;;30.52;7.30;;;;;;;;;;6172901;23;20056;-64
2023/11/10 06:07:13;;;;;;;27.20;6.43;;;;;;;;;;6173778;23;20075;-63
2023/11/10 06:10:10;;;;;;;17.73;5.70;;;;;;;;;;6168268;23;20087;-63
2023/11/10 06:13:02;;;;;;;15.90;5.53;;;;;;;;;;6174099;23;20489;-62
2023/11/10 06:15:49;;;;;;;15.75;6.00;;;;;;;;;;6173329;23;20399;-64
2023/11/10 06:18:44;;;;;;;14.38;5.68;;;;;;;;;;6174437;23;20033;-63
2023/11/10 06:21:30;;;;;;;17.02;5.80;;;;;;;;;;6174028;23;20033;-61
2023/11/10 06:24:23;;;;;;;18.83;5.35;;;;;;;;;;6172964;23;20032;-61
2023/11/10 06:27:13;;;;;;;12.50;4.75;;;;;;;;;;6175095;23;20054;-62
2023/11/10 06:30:05;;;;;;;12.90;5.15;;;;;;;;;;6173604;23;20032;-61
2023/11/10 06:32:52;;;;;;;14.07;5.60;;;;;;;;;;6173909;23;20072;-61
2023/11/10 06:35:47;;;;;;;8.32;4.40;;;;;;;;;;6171181;23;20092;-61
2023/11/10 06:38:33;;;;;;;11.55;4.82;;;;;;;;;;6173146;23;20037;-61
2023/11/10 06:41:26;;;;;;;8.93;4.40;;;;;;;;;;6175178;23;20080;-61
2023/11/10 06:44:18;;;;;;;10.77;4.63;;;;;;;;;;6174283;23;20025;-61
2023/11/10 06:47:08;;;;;;;10.38;4.80;;;;;;;;;;6175007;23;20029;-61
2023/11/10 06:49:55;;;;;;;13.85;4.65;;;;;;;;;;6174667;23;20025;-61
2023/11/10 06:52:48;;;;;;;12.52;4.32;;;;;;;;;;6175287;23;20537;-61
2023/11/10 06:55:36;;;;;;;10.15;4.32;;;;;;;;;;6174474;23;20398;-61
2023/11/10 06:58:30;;;;;;;11.10;4.45;;;;;;;;;;6175797;23;20076;-60
2023/11/10 07:01:17;;;;;;;10.95;4.47;;;;;;;;;;6174350;23;20025;-61
2023/11/10 07:04:11;;;;;;;9.20;4.57;;;;;;;;;;6175224;23;20021;-62
2023/11/10 07:07:05;;;;;;;8.20;4.28;;;;;;;;;;6173678;23;20032;-61
2023/11/10 07:09:59;;;;;;;7.80;4.30;;;;;;;;;;6173632;23;20025;-61
2023/11/10 07:12:46;;;;;;;10.57;4.47;;;;;;;;;;6175779;23;20383;-61
2023/11/10 07:15:40;;;;;;;10.45;5.05;;;;;;;;;;6174673;23;20060;-61
2023/11/10 07:18:34;;;;;;;12.10;4.78;;;;;;;;;;6176278;23;20403;-59
2023/11/10 07:21:21;;;;;;;14.60;4.93;;;;;;;;;;6174138;23;20079;-53
2023/11/10 07:24:15;;;;;;;10.82;5.32;;;;;;;;;;6175339;23;20029;-52
2023/11/10 07:27:06;;;;;;;14.98;5.45;;;;;;;;;;6176466;23;20021;-53
2023/11/10 07:29:56;;;;;;;14.35;5.80;;;;;;;;;;6174958;23;20024;-54
2023/11/10 07:32:43;;;;;;;12.15;5.53;;;;;;;;;;6173075;23;20017;-54
2023/11/10 07:35:37;;;;;;;12.77;5.63;;;;;;;;;;6174377;23;20021;-54
2023/11/10 07:38:24;;;;;;;14.77;5.63;;;;;;;;;;6174758;23;20107;-63
2023/11/10 07:41:19;;;;;;;13.52;6.10;;;;;;;;;;6177377;23;20032;-63
2023/11/10 07:44:07;;;;;;;9.93;4.97;;;;;;;;;;6176888;23;20091;-63
2023/11/10 07:47:00;;;;;;;12.07;5.55;;;;;;;;;;6177183;23;20079;-63
2023/11/10 07:49:47;;;;;;;9.32;4.82;;;;;;;;;;6176491;23;20184;-63
2023/11/10 07:52:44;;;;;;;11.98;4.97;;;;;;;;;;6177272;23;20028;-63
2023/11/10 07:55:31;;;;;;;10.15;5.25;;;;;;;;;;6175820;23;20360;-54
2023/11/10 07:58:26;;;;;;;11.13;5.07;;;;;;;;;;6176705;23;20354;-59
2023/11/10 08:01:13;;;;;;;13.93;5.28;;;;;;;;;;6175927;23;20514;-60
2023/11/10 08:04:07;;;;;;;10.25;5.20;;;;;;;;;;6176603;23;20033;-60
2023/11/10 08:06:54;;;;;;;10.90;5.10;;;;;;;;;;6175386;23;20036;-60
2023/11/10 08:09:47;;;;;;;14.18;5.60;;;;;;;;;;6176196;23;20029;-60
2023/11/10 08:12:41;;;;;;;15.60;6.25;;;;;;;;;;6175862;23;20033;-54
2023/11/10 08:15:29;;;;;;;12.05;5.32;;;;;;;;;;6175963;23;20028;-54
2023/11/10 08:18:23;;;;;;;12.75;5.40;;;;;;;;;;6177043;23;20035;-54
2023/11/10 08:21:20;;;;;;;14.93;5.78;;;;;;;;;;6177108;23;20017;-55
2023/11/10 08:24:14;;;;;;;13.73;5.85;;;;;;;;;;6175670;23;20033;-53
2023/11/10 08:27:01;;;;;;;14.68;5.95;;;;;;;;;;6175944;23;20095;-53
2023/11/10 08:29:55;;;;;;;12.55;5.72;;;;;;;;;;6175889;23;20060;-49
2023/11/10 08:32:42;;;;;;;14.73;5.65;;;;;;;;;;6177242;23;20088;-54
2023/11/10 08:35:37;;;;;;;12.75;5.47;;;;;;;;;;6175347;23;20567;-51
2023/11/10 08:38:23;;;;;;;18.05;6.45;;;;;;;;;;6176301;23;20476;-55
2023/11/10 08:41:17;;;;;;;15.38;6.07;;;;;;;;;;6176313;23;20102;-59
2023/11/10 08:44:04;;;;;;;16.65;5.75;;;;;;;;;;6176559;23;20095;-60
2023/11/10 08:46:58;;;;;;;16.08;5.20;;;;;;;;;;6175522;23;20024;-60
2023/11/10 08:49:46;;;;;;;12.20;5.90;;;;;;;;;;6175412;23;20371;-60
2023/11/10 08:52:41;;;;;;;15.30;6.20;;;;;;;;;;6176685;23;20032;-64
2023/11/10 08:55:27;;;;;;;10.48;5.45;;;;;;;;;;6175586;23;20025;-60
2023/11/10 08:58:21;;;;;;;12.95;5.55;;;;;;;;;;6174927;23;20044;-60
2023/11/10 09:00:48;;;;;;;15.57;7.10;;;;;;;;;;6175123;23;20021;-59
2023/11/10 09:03:42;;;;;;;11.68;5.93;;;;;;;;;;6176961;23;20163;-60
2023/11/10 09:06:47;;;;;;;12.02;6.22;;;;;;;;;;6177018;23;20083;-60
2023/11/10 09:09:48;;;;;;;11.07;5.78;;;;;;;;;;6176523;23;20025;-60
2023/11/10 09:12:35;;;;;;;9.45;4.97;;;;;;;;;;6175162;23;20028;-61
2023/11/10 09:15:29;;;;;;;8.70;4.10;;;;;;;;;;6176676;23;20083;-60
2023/11/10 09:18:36;;;;;;;9.43;4.82;;;;;;;;;;6175900;23;20028;-60
2023/11/10 09:21:28;;;;;;;7.60;3.92;;;;;;;;;;6175290;23;20064;-61
2023/11/10 09:24:22;;;;;;;6.55;3.00;;;;;;;;;;6175584;23;20100;-64
2023/11/10 09:27:09;;;;;;;6.60;3.10;;;;;;;;;;6175469;23;20479;-63
2023/11/10 09:30:03;;;;;;;4.78;3.35;;;;;;;;;;6176558;23;20293;-64
2023/11/10 09:32:50;;;;;;;5.97;3.10;;;;;;;;;;6175982;23;20025;-63
2023/11/10 09:35:44;;;;;;;10.95;3.50;;;;;;;;;;6174685;23;20025;-63
2023/11/10 09:38:38;;;;;;;5.50;3.03;;;;;;;;;;6176124;23;20025;-62
2023/11/10 09:41:28;;;;;;;5.03;2.95;;;;;;;;;;6175405;23;20092;-62
2023/11/10 09:44:22;;;;;;;6.72;3.25;;;;;;;;;;6175435;23;20545;-62
2023/11/10 09:47:10;;;;;;;3.50;2.73;;;;;;;;;;6175021;23;20021;-63
2023/11/10 09:50:06;;;;;;;3.80;2.70;;;;;;;;;;6174739;23;20024;-54
2023/11/10 09:52:53;;;;;;;3.90;3.10;;;;;;;;;;6175813;23;20080;-56
2023/11/10 09:55:46;;;;;;;6.32;4.15;;;;;;;;;;6173869;23;20087;-51
2023/11/10 09:58:40;;;;;;;8.80;4.80;;;;;;;;;;6174784;23;20025;-53
2023/11/10 10:01:34;;;;;;;6.80;4.43;;;;;;;;;;6175096;23;20032;-56
2023/11/10 10:04:21;;;;;;;5.97;4.05;;;;;;;;;;6175590;23;20036;-56
2023/11/10 10:07:22;;;;;;;6.60;4.22;;;;;;;;;;6176434;23;20031;-60
2023/11/10 10:10:17;;;;;;;7.93;4.40;;;;;;;;;;6174832;23;20083;-60
2023/11/10 10:13:11;;;;;;;8.13;5.10;;;;;;;;;;6176038;23;20083;-61
2023/11/10 10:16:14;;;;;;;6.93;4.30;;;;;;;;;;6175296;23;20387;-65
2023/11/10 10:19:09;;;;;;;9.02;5.45;;;;;;;;;;6174860;23;20021;-61
2023/11/10 10:21:56;;;;;;;8.50;4.80;;;;;;;;;;6176035;23;20017;-59
2023/11/10 10:24:50;;;;;;;8.23;4.22;;;;;;;;;;6174251;23;20029;-60
2023/11/10 10:27:37;;;;;;;8.48;4.57;;;;;;;;;;6175556;23;20541;-59
2023/11/10 10:30:32;;;;;;;7.45;4.60;;;;;;;;;;6175132;23;20044;-59
2023/11/10 10:33:18;;;;;;;5.03;3.70;;;;;;;;;;6174576;23;20454;-60
2023/11/10 10:36:13;;;;;;;7.50;4.30;;;;;;;;;;6175716;23;20092;-63
2023/11/10 10:39:01;;;;;;;6.45;3.97;;;;;;;;;;6174215;23;20323;-63
2023/11/10 10:41:55;;;;;;;4.70;3.53;;;;;;;;;;6174771;23;20025;-63
2023/11/10 10:44:23;;;;;;;5.68;3.83;;;;;;;;;;6174781;23;20021;-54
2023/11/10 10:47:18;;;;;;;5.25;3.58;;;;;;;;;;6175991;23;20079;-62
2023/11/10 10:50:07;;;;;;;5.72;3.67;;;;;;;;;;6175127;23;20031;-63
2023/11/10 10:53:03;;;;;;;5.30;3.53;;;;;;;;;;6173827;23;20047;-63
2023/11/10 10:55:53;;;;;;;6.25;3.15;;;;;;;;;;6173962;23;20072;-63
2023/11/10 10:59:06;;;;;;;9.52;3.33;;;;;;;;;;6176138;23;20021;-63
2023/11/10 11:01:53;;;;;;;4.80;3.30;;;;;;;;;;6171189;23;20025;-63
2023/11/10 11:04:54;;;;;;;5.15;2.80;;;;;;;;;;6175120;23;20087;-65
2023/11/10 11:08:00;;;;;;;4.13;2.55;;;;;;;;;;6175029;23;20020;-64
2023/11/10 11:11:23;;;;;;;3.47;2.30;;;;;;;;;;6175370;23;20029;-64
2023/11/10 11:14:28;;;;;;;3.58;2.45;;;;;;;;;;6174330;23;20045;-60
2023/11/10 11:17:41;;;;;;;4.40;2.35;;;;;;;;;;6172098;23;20087;-59
2023/11/10 11:20:28;;;;;;;4.38;2.58;;;;;;;;;;6173954;23;20033;-60
2023/11/10 11:23:22;;;;;;;4.25;2.42;;;;;;;;;;6174653;23;20053;-59
2023/11/10 11:26:09;;;;;;;2.78;2.00;;;;;;;;;;6173840;23;20045;-60
2023/11/10 11:28:43;;;;;;;3.17;2.10;;;;;;;;;;6174433;23;20088;-60
2023/11/10 11:31:12;;;;;;;2.58;2.15;;;;;;;;;;6175639;23;20574;-63
2023/11/10 11:33:49;;;;;;;1.80;1.60;;;;;;;;;;6172536;23;20052;-63
2023/11/10 11:36:23;;;;;;;4.45;2.10;;;;;;;;;;6172116;23;20088;-63
2023/11/10 11:38:58;;;;;;;2.72;1.45;;;;;;;;;;6173657;23;20055;-63
2023/11/10 11:41:27;;;;;;;2.17;1.42;;;;;;;;;;6175854;23;20036;-54
2023/11/10 11:44:01;;;;;;;1.83;1.67;;;;;;;;;;6174849;23;20095;-60
2023/11/10 11:46:35;;;;;;;1.90;1.80;;;;;;;;;;6173897;23;20379;-61
2023/11/10 11:49:09;;;;;;;;;;;;;;;;;;6176347;23;20055;-60
2023/11/10 11:51:37;;;;;;;3.53;1.77;;;;;;;;;;6174163;23;19928;-60
2023/11/10 11:54:11;;;;;;;2.13;1.60;;;;;;;;;;6175126;23;20035;-60
2023/11/10 11:56:38;;;;;;;3.50;1.30;;;;;;;;;;6174692;23;20080;-60
2023/11/10 11:59:05;;;;;;;1.98;1.50;;;;;;;;;;6172493;23;20040;-63
2023/11/10 12:01:39;;;;;;;1.40;1.30;;;;;;;;;;6171842;23;20616;-63
2023/11/10 12:04:07;;;;;;;1.70;1.60;;;;;;;;;;6174012;23;20109;-62
2023/11/10 12:06:41;;;;;;;1.40;1.30;;;;;;;;;;6174182;23;20023;-64
2023/11/10 12:09:14;;;;;;;;;;;;;;;;;;6174670;23;20029;-62
2023/11/10 12:11:50;;;;;;;2.03;1.67;;;;;;;;;;6174210;23;19920;-60
2023/11/10 12:14:22;;;;;;;3.03;2.00;;;;;;;;;;6174420;23;20025;-60
2023/11/10 12:16:56;;;;;;;5.13;1.70;;;;;;;;;;6172748;23;20029;-60
2023/11/10 12:19:24;;;;;;;1.85;1.70;;;;;;;;;;6176110;23;20021;-60
2023/11/10 12:21:51;;;;;;;;;;;;;;;;;;6174897;23;20025;-60
2023/11/10 12:24:48;;;;;;;1.50;1.40;;;;;;;;;;6174077;23;19919;-60
2023/11/10 12:27:36;;;;;;;1.70;1.60;;;;;;;;;;6175556;23;20776;-63
2023/11/10 12:30:31;;;;;;;2.20;1.58;;;;;;;;;;6176091;23;20021;-63
2023/11/10 12:33:18;;;;;;;2.13;1.70;;;;;;;;;;6175432;23;20588;-62
2023/11/10 12:36:12;;;;;;;1.95;1.75;;;;;;;;;;6174758;23;20029;-62
2023/11/10 12:39:06;;;;;;;2.60;2.30;;;;;;;;;;6176221;23;20023;-62
2023/11/10 12:41:58;;;;;;;2.70;2.20;;;;;;;;;;6175732;23;20482;-60
2023/11/10 12:44:43;;;;;;;3.25;2.25;;;;;;;;;;6174807;23;20375;-60
2023/11/10 12:47:39;;;;;;;2.38;2.17;;;;;;;;;;6174313;23;20107;-60
2023/11/10 12:50:34;;;;;;;3.10;1.95;;;;;;;;;;6176134;23;20025;-59
2023/11/10 12:53:27;;;;;;;2.67;2.10;;;;;;;;;;6174548;23;20084;-59
2023/11/10 12:56:14;;;;;;;3.47;2.50;;;;;;;;;;6175868;23;20025;-52
2023/11/10 12:59:11;;;;;;;2.60;2.33;;;;;;;;;;6174858;23;20085;-62
2023/11/10 13:01:59;;;;;;;2.80;2.40;;;;;;;;;;6173958;23;20025;-64
2023/11/10 13:04:55;;;;;;;3.03;2.42;;;;;;;;;;6175799;23;20033;-64
2023/11/10 13:07:49;;;;;;;3.38;2.60;;;;;;;;;;6174755;23;20025;-64
2023/11/10 13:10:50;;;;;;;3.53;2.72;;;;;;;;;;6168104;23;20025;-64
2023/11/10 13:13:37;;;;;;;2.95;2.40;;;;;;;;;;6174957;23;20091;-64
2023/11/10 13:16:33;;;;;;;3.30;2.20;;;;;;;;;;6173857;23;20101;-63
2023/11/10 13:19:20;;;;;;;6.80;2.40;;;;;;;;;;6172884;23;20554;-62
2023/11/10 13:22:17;;;;;;;2.28;2.05;;;;;;;;;;6174854;23;20017;-62
2023/11/10 13:25:08;;;;;;;6.47;2.33;;;;;;;;;;6175223;23;20028;-62
2023/11/10 13:28:05;;;;;;;3.33;2.20;;;;;;;;;;6175038;23;20021;-62
2023/11/10 13:31:07;;;;;;;4.05;2.30;;;;;;;;;;6173337;23;20100;-62
2023/11/10 13:33:55;;;;;;;2.72;2.30;;;;;;;;;;6174655;23;20424;-63
2023/11/10 13:36:42;;;;;;;3.55;2.30;;;;;;;;;;6173733;23;20024;-63
2023/11/10 13:39:36;;;;;;;2.50;2.30;;;;;;;;;;6173850;23;20028;-63
2023/11/10 13:42:23;;;;;;;3.40;2.53;;;;;;;;;;6176055;23;20029;-63
2023/11/10 13:45:17;;;;;;;4.47;2.50;;;;;;;;;;6174158;23;20763;-63
2023/11/10 13:48:04;;;;;;;3.08;2.40;;;;;;;;;;6175412;23;20017;-63
2023/11/10 13:50:38;;;;;;;3.90;2.90;;;;;;;;;;6175732;23;20049;-63
2023/11/10 13:53:05;;;;;;;3.90;2.95;;;;;;;;;;6175140;23;20075;-63
2023/11/10 13:55:32;;;;;;;9.95;2.80;;;;;;;;;;6174527;23;20021;-63
2023/11/10 13:58:07;;;;;;;3.28;2.63;;;;;;;;;;6175593;23;20029;-62
2023/11/10 14:00:53;;;;;;;3.78;2.80;;;;;;;;;;6174299;23;20028;-62
2023/11/10 14:03:47;;;;;;;3.70;2.80;;;;;;;;;;6175094;23;20537;-52
2023/11/10 14:06:35;;;;;;;4.80;3.25;;;;;;;;;;6175810;23;20031;-58
2023/11/10 14:09:35;;;;;;;4.60;3.45;;;;;;;;;;6175181;23;20024;-59
2023/11/10 14:12:29;;;;;;;7.35;4.10;;;;;;;;;;6172101;23;20025;-59
2023/11/10 14:15:17;;;;;;;4.18;3.17;;;;;;;;;;6174406;23;20025;-58
2023/11/10 14:18:13;;;;;;;5.97;3.63;;;;;;;;;;6176064;23;20036;-59
2023/11/10 14:21:00;;;;;;;5.45;3.42;;;;;;;;;;6175530;23;20825;-48
2023/11/10 14:23:54;;;;;;;8.55;4.07;;;;;;;;;;6174748;23;20025;-54
2023/11/10 14:26:41;;;;;;;7.68;3.58;;;;;;;;;;6174736;23;20025;-51
2023/11/10 14:29:38;;;;;;;7.70;3.55;;;;;;;;;;6175427;23;20079;-64
2023/11/10 14:32:25;;;;;;;6.63;3.97;;;;;;;;;;6171259;23;20021;-59
2023/11/10 14:35:16;;;;;;;4.97;3.97;;;;;;;;;;6174577;23;20067;-64
2023/11/10 14:38:03;;;;;;;5.05;3.67;;;;;;;;;;6175218;23;20541;-64
2023/11/10 14:41:10;;;;;;;4.93;3.50;;;;;;;;;;6175648;23;20021;-65
2023/11/10 14:44:02;;;;;;;5.72;3.45;;;;;;;;;;6174044;23;20463;-64
2023/11/10 14:46:54;;;;;;;6.72;4.03;;;;;;;;;;6166293;23;20043;-64
2023/11/10 14:49:47;;;;;;;8.85;4.30;;;;;;;;;;6174420;23;20355;-63
2023/11/10 14:52:44;;;;;;;8.27;4.88;;;;;;;;;;6173904;23;20032;-52
2023/11/10 14:55:28;;;;;;;7.38;4.45;;;;;;;;;;6172292;23;20021;-54
2023/11/10 14:58:22;;;;;;;10.80;4.50;;;;;;;;;;6173098;23;20481;-51
2023/11/10 15:01:12;;;;;;;8.27;5.00;;;;;;;;;;6171876;23;20021;-49
2023/11/10 15:04:04;;;;;;;9.95;4.72;;;;;;;;;;6172279;23;20045;-53
2023/11/10 15:06:36;;;;;;;9.93;5.53;;;;;;;;;;6172134;23;20032;-59
2023/11/10 15:09:10;;;;;;;12.82;5.88;;;;;;;;;;6142881;23;20100;-52
2023/11/10 15:12:04;;;;;;;9.30;4.95;;;;;;;;;;6143561;23;20483;-62
2023/11/10 15:14:58;;;;;;;15.50;5.65;;;;;;;;;;6140550;23;20478;-62
2023/11/10 15:17:45;;;;;;;11.82;5.43;;;;;;;;;;6142297;23;20021;-62
2023/11/10 15:20:39;;;;;;;8.60;5.20;;;;;;;;;;6145127;23;20260;-62
2023/11/10 15:23:06;;;;;;;13.32;6.15;;;;;;;;;;6144826;23;20045;-62
2023/11/10 15:26:00;;;;;;;12.27;6.18;;;;;;;;;;6144137;23;20542;-59
2023/11/10 15:28:48;;;;;;;19.38;6.13;;;;;;;;;;6144774;23;20029;-59
2023/11/10 15:31:49;;;;;;;10.32;5.18;;;;;;;;;;6143994;23;20088;-60
2023/11/10 15:34:21;;;;;;;12.30;6.00;;;;;;;;;;6143080;23;20514;-59
2023/11/10 15:36:58;;;;;;;16.83;6.90;;;;;;;;;;6144145;23;20181;-60
2023/11/10 15:39:27;;;;;;;10.90;5.88;;;;;;;;;;6144657;23;20432;-60
2023/11/10 15:42:01;;;;;;;10.15;5.43;;;;;;;;;;6145468;23;20026;-60
2023/11/10 15:44:29;;;;;;;10.40;5.80;;;;;;;;;;6145209;23;20032;-55
2023/11/10 15:47:03;;;;;;;10.30;5.75;;;;;;;;;;6138427;23;20022;-63
2023/11/10 15:49:30;;;;;;;10.15;5.57;;;;;;;;;;6141646;23;20124;-63
2023/11/10 15:52:24;;;;;;;11.10;5.50;;;;;;;;;;6142836;23;20025;-63
2023/11/10 15:55:11;;;;;;;8.63;4.88;;;;;;;;;;6142982;23;20032;-63
2023/11/10 15:58:05;;;;;;;11.52;5.75;;;;;;;;;;6142913;23;20080;-63
2023/11/10 16:00:59;;;;;;;7.97;4.78;;;;;;;;;;6142953;23;20101;-63
2023/11/10 16:03:46;;;;;;;8.95;4.93;;;;;;;;;;6144425;23;20329;-63
2023/11/10 16:06:40;;;;;;;8.20;4.30;;;;;;;;;;6144351;23;20395;-56
2023/11/10 16:09:33;;;;;;;16.63;5.63;;;;;;;;;;6163695;23;20435;-55
2023/11/10 16:12:35;;;;;;;11.13;4.55;;;;;;;;;;6173428;23;20021;-55
2023/11/10 16:15:22;;;;;;;12.18;4.30;;;;;;;;;;6173173;23;20059;-51
2023/11/10 16:18:16;;;;;;;10.95;3.97;;;;;;;;;;6175748;23;20025;-55
2023/11/10 16:21:06;;;;;;;10.77;3.88;;;;;;;;;;6173934;23;20407;-64
2023/11/10 16:23:57;;;;;;;14.65;4.72;;;;;;;;;;6174270;23;20096;-60
2023/11/10 16:26:45;;;;;;;9.90;4.40;;;;;;;;;;6174879;23;20092;-60
2023/11/10 16:29:38;;;;;;;9.55;4.03;;;;;;;;;;6175413;23;20079;-60
2023/11/10 16:32:28;;;;;;;17.15;4.97;;;;;;;;;;6174667;23;20025;-61
2023/11/10 16:35:20;;;;;;;15.05;4.28;;;;;;;;;;6173099;23;20092;-60
2023/11/10 16:37:47;;;;;;;15.70;4.88;;;;;;;;;;6175167;23;20025;-60
2023/11/10 16:40:15;;;;;;;9.52;4.03;;;;;;;;;;6175984;23;20021;-61
2023/11/10 16:42:50;;;;;;;15.48;4.57;;;;;;;;;;6174192;23;20044;-64